CheckWX is a tool to help pilots better visualize weather data.  It is not intended as a substitute for an official pre-flight weather briefing.

04:54:10 UTC

KILG METAR
New Castle Airport
Wilmington, Delaware, USA
Current

1 hour ago

KILG 260351Z AUTO 04008KT 10SM CLR 19/14 A3021 RMK AO2 SLP229 T01890144 $
Observed
Aug-26 @ 03:51 UTC
Wind
  • 040° at 8 KTS
Visibility
10 SM
Flight Rules
VFR
Cloud Levels
  • Clear skies
Temperature
19°C / 66°F
Dewpoint
14°C / 57°F
Humidity
73%
Altimeter
30.21" Hg
Pressure
1023.02 hPa
Previous

2 hours ago

KILG 260251Z AUTO 07009KT 10SM CLR 19/14 A3022 RMK AO2 SLP231 T01940144 51006 $
Observed
Aug-26 @ 02:51 UTC
Wind
  • 070° at 9 KTS
Visibility
10 SM
Flight Rules
VFR
Cloud Levels
  • Clear skies
Temperature
19°C / 66°F
Dewpoint
14°C / 57°F
Humidity
73%
Altimeter
30.22" Hg
Pressure
1023.42 hPa
Previous

3 hours ago

KILG 260151Z AUTO 08009KT 10SM CLR 20/14 A3021 RMK AO2 SLP230 T02000144 $
Observed
Aug-26 @ 01:51 UTC
Wind
  • 080° at 9 KTS
Visibility
10 SM
Flight Rules
VFR
Cloud Levels
  • Clear skies
Temperature
20°C / 68°F
Dewpoint
14°C / 57°F
Humidity
69%
Altimeter
30.21" Hg
Pressure
1023.02 hPa